createdAt,value
2018-04-26T00:01:55.781Z,60.83
2018-04-26T00:04:23.369Z,61.15
2018-04-26T00:06:50.931Z,62.07
2018-04-26T00:09:18.421Z,63.05
2018-04-26T00:11:45.881Z,63.38
2018-04-26T00:14:13.926Z,63.89
2018-04-26T00:16:41.377Z,64.72
2018-04-26T00:19:08.851Z,64.01
2018-04-26T00:21:36.318Z,64.02
2018-04-26T00:24:03.884Z,63.33
2018-04-26T00:26:31.540Z,63.77
2018-04-26T00:28:59.603Z,62.91
2018-04-26T00:31:27.119Z,63.18
2018-04-26T00:33:54.560Z,62.96
2018-04-26T00:36:22.061Z,63.16
2018-04-26T00:38:49.617Z,63.12
2018-04-26T00:41:17.127Z,63.19
2018-04-26T00:43:44.677Z,62.96
2018-04-26T00:46:12.174Z,62.73
2018-04-26T00:48:39.620Z,63.02
2018-04-26T00:51:07.173Z,64.33
2018-04-26T00:53:34.648Z,64.15
2018-04-26T00:56:02.136Z,62.64
2018-04-26T00:58:29.617Z,63.24
2018-04-26T01:00:58.258Z,61.99
2018-04-26T01:03:25.806Z,63.28
2018-04-26T01:05:53.267Z,62.18
2018-04-26T01:08:20.761Z,62.45
2018-04-26T01:10:48.278Z,62.24
2018-04-26T01:13:15.833Z,61.83
2018-04-26T01:15:43.329Z,62.39
2018-04-26T01:18:11.005Z,62.66
2018-04-26T01:20:38.463Z,62.80
2018-04-26T01:23:05.902Z,63.00
2018-04-26T01:25:33.441Z,63.42
2018-04-26T01:28:01.692Z,63.10
2018-04-26T01:30:29.156Z,63.17
2018-04-26T01:32:56.618Z,63.54
2018-04-26T01:35:24.127Z,64.74
2018-04-26T01:37:51.590Z,64.36
2018-04-26T01:40:19.165Z,64.34
2018-04-26T01:42:46.619Z,63.92
2018-04-26T01:45:14.742Z,64.16
2018-04-26T01:47:42.174Z,63.30
2018-04-26T01:50:09.702Z,63.09
2018-04-26T01:52:37.296Z,63.74
2018-04-26T01:55:04.904Z,63.37
2018-04-26T01:57:32.434Z,62.45
2018-04-26T01:59:59.881Z,63.69
2018-04-26T02:02:27.360Z,64.02
2018-04-26T02:04:54.874Z,63.56
2018-04-26T02:07:22.331Z,64.47
2018-04-26T02:09:49.755Z,65.00
2018-04-26T02:12:17.253Z,63.66
2018-04-26T02:14:44.720Z,63.46
2018-04-26T02:17:12.253Z,65.26
2018-04-26T02:19:39.711Z,64.42
2018-04-26T02:22:07.191Z,64.73
2018-04-26T02:24:34.653Z,65.64
2018-04-26T02:27:02.191Z,64.06
2018-04-26T02:29:29.649Z,64.95
2018-04-26T02:31:57.120Z,64.37
2018-04-26T02:34:24.652Z,64.54
2018-04-26T02:36:52.095Z,64.23
2018-04-26T02:39:19.646Z,65.74
2018-04-26T02:41:47.132Z,65.44
2018-04-26T02:44:14.613Z,65.62
2018-04-26T02:46:42.054Z,65.89
2018-04-26T02:49:10.292Z,66.39
2018-04-26T02:51:37.777Z,65.81
2018-04-26T02:54:05.239Z,65.62
2018-04-26T02:56:32.888Z,65.54
2018-04-26T02:59:00.320Z,66.17
2018-04-26T03:01:27.937Z,67.07
2018-04-26T03:03:55.480Z,67.72
2018-04-26T03:06:23.032Z,67.08
2018-04-26T03:08:50.602Z,66.77
2018-04-26T03:11:18.331Z,65.88
2018-04-26T03:13:45.763Z,65.43
2018-04-26T03:16:13.224Z,65.89
2018-04-26T03:18:40.765Z,66.31
2018-04-26T03:21:08.279Z,66.46
2018-04-26T03:23:35.742Z,66.96
2018-04-26T03:26:03.208Z,67.15
2018-04-26T03:28:30.642Z,66.91
2018-04-26T03:30:58.124Z,67.20
2018-04-26T03:33:25.681Z,67.55
2018-04-26T03:35:53.126Z,68.51
2018-04-26T03:38:20.604Z,68.32
2018-04-26T03:40:48.132Z,68.16
2018-04-26T03:43:15.690Z,68.96
2018-04-26T03:45:43.140Z,69.15
2018-04-26T03:48:10.618Z,69.35
2018-04-26T03:50:38.717Z,70.04
2018-04-26T03:53:06.262Z,69.88
2018-04-26T03:55:33.869Z,69.78
2018-04-26T03:58:01.530Z,70.46
2018-04-26T04:00:40.844Z,71.05
2018-04-26T04:06:15.146Z,71.11
2018-04-26T04:08:42.619Z,70.48
2018-04-26T04:11:10.080Z,70.60
2018-04-26T04:13:38.163Z,70.66
2018-04-26T04:16:05.691Z,70.35
2018-04-26T04:18:33.192Z,70.36
2018-04-26T04:21:00.683Z,71.49
2018-04-26T04:23:28.231Z,70.38
2018-04-26T04:25:55.812Z,70.72
2018-04-26T04:28:23.376Z,70.88
2018-04-26T04:30:50.934Z,70.41
2018-04-26T04:33:18.470Z,69.37
2018-04-26T04:35:45.934Z,70.08
2018-04-26T04:38:13.723Z,69.82
2018-04-26T04:40:41.288Z,68.85
2018-04-26T04:43:08.781Z,69.32
2018-04-26T04:45:36.215Z,69.51
2018-04-26T04:48:03.668Z,69.00
2018-04-26T04:50:31.124Z,69.27
2018-04-26T04:52:58.564Z,68.51
2018-04-26T04:55:26.032Z,68.33
2018-04-26T04:57:53.505Z,68.74
2018-04-26T05:00:20.987Z,69.58
2018-04-26T05:02:48.468Z,69.91
2018-04-26T05:05:16.126Z,70.15
2018-04-26T05:07:43.698Z,69.76
2018-04-26T05:10:11.250Z,69.92
2018-04-26T05:12:38.767Z,69.27
2018-04-26T05:15:06.237Z,69.57
2018-04-26T05:17:33.674Z,70.45
2018-04-26T05:20:01.248Z,69.63
2018-04-26T05:22:28.708Z,70.07
2018-04-26T05:24:56.215Z,69.28
2018-04-26T05:27:23.715Z,69.93
2018-04-26T05:29:51.165Z,69.21
2018-04-26T05:32:18.674Z,69.61
2018-04-26T05:34:46.120Z,69.37
2018-04-26T05:37:14.197Z,68.88
2018-04-26T05:39:41.696Z,68.95
2018-04-26T05:42:09.279Z,68.26
2018-04-26T05:44:36.819Z,66.99
2018-04-26T05:47:04.300Z,65.62
2018-04-26T05:49:31.792Z,59.11
2018-04-26T05:51:59.283Z,54.14
2018-04-26T05:54:26.751Z,49.79
2018-04-26T05:56:54.282Z,47.05
2018-04-26T05:59:21.763Z,44.13
2018-04-26T06:01:49.245Z,41.06
2018-04-26T06:04:16.753Z,40.30
2018-04-26T06:06:44.434Z,42.03
2018-04-26T06:09:12.309Z,40.54
2018-04-26T06:11:40.205Z,38.30
2018-04-26T06:14:07.716Z,37.74
2018-04-26T06:16:35.603Z,37.78
2018-04-26T06:19:03.118Z,35.17
2018-04-26T06:21:30.700Z,36.28
2018-04-26T06:23:58.313Z,34.62
2018-04-26T06:26:25.894Z,34.34
2018-04-26T06:28:53.531Z,34.56
2018-04-26T06:31:20.989Z,37.07
2018-04-26T06:33:48.541Z,38.51
2018-04-26T06:36:16.132Z,42.17
2018-04-26T06:38:43.665Z,44.56
2018-04-26T06:41:11.214Z,46.62
2018-04-26T06:43:38.721Z,46.35
2018-04-26T06:46:06.313Z,47.06
2018-04-26T06:48:34.674Z,47.74
2018-04-26T06:51:02.121Z,46.87
2018-04-26T06:53:29.621Z,47.00
2018-04-26T06:55:57.037Z,47.61
2018-04-26T06:58:24.599Z,47.52
2018-04-26T07:00:52.108Z,48.85
2018-04-26T07:03:20.265Z,50.03
2018-04-26T07:05:48.594Z,49.62
2018-04-26T07:08:16.120Z,50.56
2018-04-26T07:10:43.580Z,50.10
2018-04-26T07:13:11.127Z,50.62
2018-04-26T07:15:38.632Z,50.50
2018-04-26T07:18:06.159Z,51.09
2018-04-26T07:20:33.664Z,52.05
2018-04-26T07:23:01.151Z,52.58
2018-04-26T07:25:29.299Z,52.83
2018-04-26T07:27:56.833Z,53.30
2018-04-26T07:30:24.380Z,52.56
2018-04-26T07:32:51.958Z,52.92
2018-04-26T07:35:19.444Z,52.21
2018-04-26T07:37:46.918Z,52.03
2018-04-26T07:40:14.507Z,52.44
2018-04-26T07:42:41.972Z,52.53
2018-04-26T07:45:09.498Z,52.97
2018-04-26T07:47:37.055Z,52.91
2018-04-26T07:50:04.587Z,52.55
2018-04-26T07:52:32.089Z,53.05
2018-04-26T07:55:02.161Z,53.13
2018-04-26T07:57:29.699Z,53.47
2018-04-26T07:59:57.246Z,53.50
2018-04-26T08:02:24.856Z,52.78
2018-04-26T08:04:52.461Z,52.75
2018-04-26T08:07:20.075Z,52.39
2018-04-26T08:09:47.516Z,52.95
2018-04-26T08:12:14.986Z,53.14
2018-04-26T08:14:42.567Z,52.68
2018-04-26T08:17:10.101Z,52.21
2018-04-26T08:19:37.671Z,52.68
2018-04-26T08:22:05.455Z,51.95
2018-04-26T08:24:33.814Z,52.23
2018-04-26T08:27:01.780Z,52.28
2018-04-26T08:29:29.290Z,51.96
2018-04-26T08:31:57.026Z,51.99
2018-04-26T08:34:25.291Z,52.02
2018-04-26T08:36:53.088Z,51.12
2018-04-26T08:39:20.539Z,51.28
2018-04-26T08:41:48.321Z,51.50
2018-04-26T08:44:16.154Z,51.49
2018-04-26T08:46:43.652Z,51.88
2018-04-26T08:49:11.109Z,51.98
2018-04-26T08:51:38.721Z,51.76
2018-04-26T08:54:06.239Z,50.72
2018-04-26T08:56:34.058Z,50.46
2018-04-26T08:59:01.518Z,50.51
2018-04-26T09:01:28.991Z,50.16
2018-04-26T09:03:56.460Z,50.87
2018-04-26T09:06:24.160Z,50.44
2018-04-26T09:08:51.849Z,50.04
2018-04-26T09:11:19.342Z,50.50
2018-04-26T09:13:46.804Z,50.37
2018-04-26T09:16:14.448Z,50.96
2018-04-26T09:18:42.027Z,50.71
2018-04-26T09:21:09.615Z,51.19
2018-04-26T09:23:37.202Z,51.25
2018-04-26T09:26:04.671Z,51.48
2018-04-26T09:28:32.226Z,51.76
2018-04-26T09:30:59.688Z,51.73
2018-04-26T09:33:27.166Z,51.83
2018-04-26T09:35:54.734Z,51.95
2018-04-26T09:38:22.263Z,51.24
2018-04-26T09:40:49.708Z,52.14
2018-04-26T09:43:17.187Z,51.58
2018-04-26T09:45:44.653Z,51.35
2018-04-26T09:48:12.118Z,50.23
2018-04-26T09:50:39.626Z,49.56
2018-04-26T09:53:07.129Z,49.14
2018-04-26T09:55:34.688Z,48.30
2018-04-26T09:58:02.300Z,48.59
2018-04-26T10:00:29.787Z,47.75
2018-04-26T10:02:57.942Z,47.18
2018-04-26T10:05:30.813Z,46.00
2018-04-26T10:07:58.842Z,46.90
2018-04-26T10:10:26.652Z,47.19
2018-04-26T10:12:54.128Z,46.10
2018-04-26T10:15:21.614Z,46.62
2018-04-26T10:17:49.144Z,46.02
2018-04-26T10:20:16.760Z,45.58
2018-04-26T10:22:45.335Z,44.60
2018-04-26T10:25:12.750Z,42.99
2018-04-26T10:27:40.303Z,42.68
2018-04-26T10:30:07.745Z,43.97
2018-04-26T10:32:35.945Z,43.63
2018-04-26T10:35:03.469Z,43.63
2018-04-26T10:37:30.948Z,43.26
2018-04-26T10:39:58.455Z,44.36
2018-04-26T10:42:26.248Z,44.87
2018-04-26T10:44:53.671Z,43.97
2018-04-26T10:47:21.185Z,43.19
2018-04-26T10:49:48.690Z,43.78
2018-04-26T10:52:16.147Z,43.52
2018-04-26T10:54:44.690Z,43.28
2018-04-26T10:57:12.142Z,42.73
2018-04-26T10:59:39.776Z,40.41
2018-04-26T11:02:07.247Z,40.96
2018-04-26T11:04:34.718Z,38.66
2018-04-26T11:07:02.219Z,39.40
2018-04-26T11:09:29.671Z,35.91
2018-04-26T11:11:57.160Z,34.74
2018-04-26T11:14:24.660Z,34.64
2018-04-26T11:16:52.220Z,32.62
2018-04-26T11:19:19.776Z,34.71
2018-04-26T11:21:47.468Z,32.13
2018-04-26T11:24:14.922Z,32.81
2018-04-26T11:26:42.378Z,32.28
2018-04-26T11:29:09.824Z,32.77
2018-04-26T11:31:37.373Z,31.02
2018-04-26T11:34:04.823Z,32.04
2018-04-26T11:36:32.305Z,32.58
2018-04-26T11:39:00.064Z,31.37
2018-04-26T11:41:27.953Z,31.86
2018-04-26T11:43:55.471Z,32.42
2018-04-26T11:46:22.940Z,31.40
2018-04-26T11:48:50.657Z,31.19
2018-04-26T11:51:18.167Z,32.19
2018-04-26T11:53:46.414Z,32.62
2018-04-26T11:56:14.255Z,33.44
2018-04-26T11:58:41.675Z,33.53
2018-04-26T12:01:09.144Z,33.71
2018-04-26T12:03:37.210Z,34.07
2018-04-26T12:06:04.701Z,32.69
2018-04-26T12:08:32.803Z,31.44
2018-04-26T12:11:00.410Z,31.21
2018-04-26T12:13:27.982Z,31.03
2018-04-26T12:15:55.577Z,30.81
2018-04-26T12:18:23.067Z,29.61
2018-04-26T12:20:50.670Z,30.61
2018-04-26T12:23:18.134Z,31.11
2018-04-26T12:25:45.673Z,31.27
2018-04-26T12:28:13.150Z,31.37
2018-04-26T12:30:40.783Z,29.01
2018-04-26T12:33:08.645Z,27.78
2018-04-26T12:35:36.122Z,29.06
2018-04-26T12:38:03.589Z,29.70
2018-04-26T12:40:31.059Z,30.40
2018-04-26T12:42:58.536Z,30.74
2018-04-26T12:45:26.026Z,30.21
2018-04-26T12:47:53.567Z,29.36
2018-04-26T12:50:21.046Z,29.67
2018-04-26T12:52:49.298Z,29.67
2018-04-26T12:55:16.759Z,29.91
2018-04-26T12:57:44.273Z,29.43
2018-04-26T13:00:11.733Z,29.17
2018-04-26T13:02:39.313Z,28.93
2018-04-26T13:05:06.827Z,27.90
2018-04-26T13:07:35.149Z,27.25
2018-04-26T13:10:02.708Z,24.49
2018-04-26T13:12:30.215Z,24.22
2018-04-26T13:14:58.953Z,25.08
2018-04-26T13:17:28.250Z,25.51
2018-04-26T13:19:55.659Z,25.06
2018-04-26T13:22:23.198Z,24.04
2018-04-26T13:24:51.245Z,25.39
2018-04-26T13:27:18.838Z,25.92
2018-04-26T13:29:46.324Z,26.65
2018-04-26T13:32:14.576Z,26.52
2018-04-26T13:34:42.901Z,25.62
2018-04-26T13:37:10.488Z,26.23
2018-04-26T13:39:38.040Z,26.82
2018-04-26T13:42:05.483Z,27.50
2018-04-26T13:44:32.951Z,27.07
2018-04-26T13:47:00.500Z,26.98
2018-04-26T13:49:28.028Z,28.17
2018-04-26T13:51:55.524Z,28.40
2018-04-26T13:54:23.091Z,27.36
2018-04-26T13:56:51.716Z,28.02
2018-04-26T13:59:19.349Z,27.58
2018-04-26T14:01:46.949Z,27.86
2018-04-26T14:04:15.211Z,26.89
2018-04-26T14:06:43.170Z,27.25
2018-04-26T14:09:10.654Z,27.60
2018-04-26T14:11:38.988Z,28.08
2018-04-26T14:14:06.595Z,27.84
2018-04-26T14:16:34.306Z,26.78
2018-04-26T14:19:02.012Z,25.90
2018-04-26T14:21:29.547Z,24.49
2018-04-26T14:23:57.887Z,23.73
2018-04-26T14:26:26.019Z,23.90
2018-04-26T14:28:53.637Z,24.12
2018-04-26T14:31:21.871Z,24.97
2018-04-26T14:33:49.346Z,25.27
2018-04-26T14:36:16.876Z,25.69
2018-04-26T14:38:44.355Z,25.83
2018-04-26T14:41:11.878Z,25.60
2018-04-26T14:43:39.737Z,25.44
2018-04-26T14:46:07.593Z,24.81
2018-04-26T14:48:36.273Z,25.17
2018-04-26T14:51:03.848Z,24.51
2018-04-26T14:53:31.348Z,25.08
2018-04-26T14:55:59.045Z,24.33
2018-04-26T14:58:26.951Z,24.75
2018-04-26T15:00:54.416Z,25.33
2018-04-26T15:03:22.764Z,25.81
2018-04-26T15:05:50.353Z,26.62
2018-04-26T15:08:17.793Z,26.69
2018-04-26T15:10:45.337Z,27.58
2018-04-26T15:13:13.220Z,27.27
2018-04-26T15:15:40.793Z,27.45
2018-04-26T15:18:09.230Z,27.48
2018-04-26T15:20:36.742Z,27.23
2018-04-26T15:23:04.272Z,27.67
2018-04-26T15:25:31.983Z,28.24
2018-04-26T15:27:59.520Z,28.54
2018-04-26T15:30:27.199Z,28.89
2018-04-26T15:32:54.749Z,29.08
2018-04-26T15:35:22.816Z,28.72
2018-04-26T15:37:50.348Z,28.77
2018-04-26T15:40:17.885Z,29.47
2018-04-26T15:42:45.550Z,29.43
2018-04-26T15:45:13.291Z,28.89
2018-04-26T15:47:40.864Z,28.03
2018-04-26T15:50:09.617Z,28.14
2018-04-26T15:52:55.563Z,28.48
2018-04-26T15:55:35.625Z,27.65
2018-04-26T15:58:15.790Z,28.00
2018-04-26T16:01:00.902Z,28.91
2018-04-26T16:03:41.065Z,28.57
2018-04-26T16:06:32.342Z,29.04
2018-04-26T16:09:11.729Z,28.94
2018-04-26T16:11:51.576Z,28.89
2018-04-26T16:14:34.619Z,29.37
2018-04-26T16:17:32.341Z,28.16
2018-04-26T16:20:19.564Z,28.27
2018-04-26T16:23:04.556Z,28.54
2018-04-26T16:25:45.565Z,28.39
2018-04-26T16:28:30.534Z,29.31
2018-04-26T16:31:22.568Z,28.57
2018-04-26T16:34:06.873Z,28.69
2018-04-26T16:36:46.168Z,29.06
2018-04-26T16:39:16.391Z,28.43
2018-04-26T16:41:43.867Z,29.40
2018-04-26T16:44:11.469Z,29.58
2018-04-26T16:46:38.957Z,29.39
2018-04-26T16:49:06.908Z,29.26
2018-04-26T16:51:34.312Z,29.06
2018-04-26T16:54:01.889Z,29.19
2018-04-26T16:56:29.375Z,29.64
2018-04-26T16:58:56.992Z,29.96
2018-04-26T17:01:25.412Z,29.60
2018-04-26T17:03:52.919Z,29.97
2018-04-26T17:06:20.559Z,30.16
2018-04-26T17:08:48.084Z,30.07
2018-04-26T17:11:17.015Z,30.43
2018-04-26T17:13:44.543Z,30.72
2018-04-26T17:16:12.963Z,30.67
2018-04-26T17:18:40.803Z,30.87
2018-04-26T17:21:09.509Z,31.49
2018-04-26T17:23:38.109Z,31.55
2018-04-26T17:26:06.485Z,31.45
2018-04-26T17:28:34.004Z,31.63
2018-04-26T17:31:01.529Z,31.49
2018-04-26T17:33:29.020Z,31.72
2018-04-26T17:35:56.649Z,31.90
2018-04-26T17:38:24.117Z,32.18
2018-04-26T17:40:52.028Z,32.04
2018-04-26T17:43:19.642Z,31.95
2018-04-26T17:45:47.426Z,32.04
2018-04-26T17:48:16.780Z,32.32
2018-04-26T17:50:45.871Z,32.28
2018-04-26T17:53:13.980Z,32.43
2018-04-26T17:55:42.183Z,32.68
2018-04-26T17:58:12.493Z,32.81
2018-04-26T18:00:39.944Z,33.52
2018-04-26T18:03:07.475Z,33.43
2018-04-26T18:05:35.842Z,33.56
2018-04-26T18:08:07.581Z,33.92
2018-04-26T18:10:35.827Z,34.27
2018-04-26T18:13:03.800Z,34.16
2018-04-26T18:15:31.466Z,34.24
2018-04-26T18:17:59.786Z,34.23
2018-04-26T18:20:27.353Z,34.75
2018-04-26T18:22:54.868Z,34.61
2018-04-26T18:25:23.560Z,34.91
2018-04-26T18:27:51.245Z,34.88
2018-04-26T18:30:21.199Z,35.04
2018-04-26T18:32:48.732Z,34.76
2018-04-26T18:35:16.239Z,34.60
2018-04-26T18:37:44.383Z,34.69
2018-04-26T18:40:11.869Z,34.79
2018-04-26T18:42:39.398Z,35.07
2018-04-26T18:45:06.848Z,35.00
2018-04-26T18:47:34.372Z,35.10
2018-04-26T18:50:02.622Z,34.95
2018-04-26T18:52:31.151Z,35.09
2018-04-26T18:55:00.715Z,35.37
2018-04-26T18:57:28.238Z,35.44
2018-04-26T18:59:55.680Z,35.25
2018-04-26T19:02:24.060Z,35.36
2018-04-26T19:04:53.114Z,35.37
2018-04-26T19:07:20.904Z,35.45
2018-04-26T19:09:48.514Z,35.71
2018-04-26T19:12:16.473Z,35.68
2018-04-26T19:14:44.108Z,35.81
2018-04-26T19:17:11.928Z,36.05
2018-04-26T19:19:47.845Z,36.36
2018-04-26T19:22:15.885Z,36.14
2018-04-26T19:24:43.451Z,35.82
2018-04-26T19:27:11.113Z,36.35
2018-04-26T19:29:38.671Z,36.64
2018-04-26T19:32:06.180Z,37.06
2018-04-26T19:34:35.180Z,37.30
2018-04-26T19:37:02.992Z,37.48
2018-04-26T19:39:31.620Z,37.94
2018-04-26T19:41:59.077Z,38.67
2018-04-26T19:44:27.186Z,38.78
2018-04-26T19:46:56.453Z,38.14
2018-04-26T19:49:27.730Z,38.19
2018-04-26T19:51:55.236Z,37.97
2018-04-26T19:54:22.812Z,39.01
2018-04-26T19:56:50.361Z,39.54
2018-04-26T19:59:18.966Z,40.08
2018-04-26T20:01:47.448Z,40.06
2018-04-26T20:04:18.781Z,40.04
2018-04-26T20:06:47.064Z,39.90
2018-04-26T20:09:14.685Z,40.15
2018-04-26T20:11:42.312Z,39.52
2018-04-26T20:14:09.766Z,39.11
2018-04-26T20:16:37.298Z,38.98
2018-04-26T20:19:05.547Z,39.10
2018-04-26T20:21:33.013Z,39.01
2018-04-26T20:24:00.594Z,39.47
2018-04-26T20:26:28.027Z,38.65
2018-04-26T20:28:55.709Z,38.82
2018-04-26T20:31:23.378Z,38.39
2018-04-26T20:33:50.989Z,38.73
2018-04-26T20:36:18.559Z,39.20
2018-04-26T20:38:46.467Z,39.69
2018-04-26T20:41:13.929Z,40.21
2018-04-26T20:43:41.404Z,40.37
2018-04-26T20:46:08.884Z,40.33
2018-04-26T20:48:39.798Z,40.17
2018-04-26T20:51:07.230Z,39.74
2018-04-26T20:53:34.681Z,40.17
2018-04-26T20:56:02.279Z,40.32
2018-04-26T20:58:29.830Z,40.70
2018-04-26T21:00:57.408Z,40.77
2018-04-26T21:03:24.842Z,40.81
2018-04-26T21:05:52.311Z,41.17
2018-04-26T21:08:19.856Z,41.01
2018-04-26T21:10:47.376Z,41.17
2018-04-26T21:13:14.822Z,40.94
2018-04-26T21:15:42.290Z,41.28
2018-04-26T21:18:09.991Z,41.32
2018-04-26T21:20:37.493Z,41.35
2018-04-26T21:23:04.934Z,41.51
2018-04-26T21:25:32.382Z,41.64
2018-04-26T21:27:59.852Z,41.81
2018-04-26T21:30:27.341Z,42.11
2018-04-26T21:32:54.817Z,42.76
2018-04-26T21:35:22.250Z,43.34
2018-04-26T21:37:49.806Z,43.58
2018-04-26T21:40:17.719Z,43.71
2018-04-26T21:42:45.180Z,44.18
2018-04-26T21:45:12.693Z,44.19
2018-04-26T21:47:40.199Z,44.46
2018-04-26T21:50:13.184Z,45.26
2018-04-26T21:52:46.258Z,45.79
2018-04-26T21:55:19.419Z,46.13
2018-04-26T21:57:52.508Z,46.37
2018-04-26T22:00:25.630Z,46.69
2018-04-26T22:02:52.499Z,46.80
2018-04-26T22:05:22.637Z,46.96
2018-04-26T22:07:50.116Z,47.08
2018-04-26T22:10:17.576Z,47.27
2018-04-26T22:12:45.007Z,47.53
2018-04-26T22:15:12.477Z,47.71
2018-04-26T22:17:39.921Z,48.16
2018-04-26T22:20:07.485Z,48.22
2018-04-26T22:22:35.072Z,48.42
2018-04-26T22:25:02.650Z,48.45
2018-04-26T22:27:30.302Z,48.46
2018-04-26T22:29:57.835Z,48.28
2018-04-26T22:32:25.319Z,48.10
2018-04-26T22:34:53.406Z,47.75
2018-04-26T22:37:20.857Z,47.68
2018-04-26T22:39:48.365Z,47.70
2018-04-26T22:42:15.844Z,47.90
2018-04-26T22:44:43.325Z,48.03
2018-04-26T22:47:10.825Z,48.58
2018-04-26T22:49:38.319Z,48.93
2018-04-26T22:52:05.808Z,49.00
2018-04-26T22:54:33.240Z,49.29
2018-04-26T22:57:00.730Z,49.48
2018-04-26T22:59:28.221Z,49.57
2018-04-26T23:01:55.728Z,49.77
2018-04-26T23:04:23.380Z,49.72
2018-04-26T23:06:50.890Z,49.60
2018-04-26T23:09:18.727Z,49.75
2018-04-26T23:11:46.171Z,49.79
2018-04-26T23:14:13.645Z,50.04
2018-04-26T23:16:41.079Z,50.39
2018-04-26T23:19:08.706Z,50.53
2018-04-26T23:21:36.222Z,50.51
2018-04-26T23:24:03.919Z,50.84
2018-04-26T23:26:31.444Z,51.39
2018-04-26T23:28:59.125Z,51.46
2018-04-26T23:31:26.693Z,51.20
2018-04-26T23:33:54.326Z,51.18
2018-04-26T23:36:21.769Z,51.43
2018-04-26T23:38:49.210Z,51.33
2018-04-26T23:41:16.751Z,51.17
2018-04-26T23:43:44.448Z,51.37
2018-04-26T23:46:11.957Z,51.27
2018-04-26T23:48:39.410Z,51.60
2018-04-26T23:51:10.679Z,51.61
2018-04-26T23:53:38.106Z,51.49
2018-04-26T23:56:05.628Z,51.63
2018-04-26T23:58:33.065Z,51.81
